Audubon Park, New Jersey
Current Conditions -  °F | °C
As of 7:54 AM on Thursday 27 Nov 2014 (Local Time) from KPHL Reporting Station
Overcast Overcast  
Wind Chill: 32°   Ceiling: 2800
Heat Index: 37°   Visibility: 10mi
Dew Point: 30°   Wind: 6mph
Humidity: 76%   Direction: 260°W
Pressure: 30.02"   Gusts: NA
Location:  39.891°N, 75.0738°W
Report Text: KPHL 271254Z 26005KT 10SM BKN028 BKN048 OVC070 03/M01 A3002 RMK AO2 SLP166 T00281011 $
Loading
Personal Weather Stations






























Interactive Weather Map New forecast layout! Learn more

10-Day Weather Forecast

Advertisements
Track Severe Weather on mobile